Time;durP1;ratioP1;P1;durP2;ratioP2;P2;SDS_P1;SDS_P2;PMS_P1;PMS_P2;Temp;Humidity;BMP_temperature;BMP_pressure;BME280_temperature;BME280_humidity;BME280_pressure;Samples;Min_cycle;Max_cycle;Signal;HPM_P1;HPM_P2
2021/05/30 00:02:14;;;;;;;6.40;5.80;;;;;;;;;;4981420;28;20203;-69
2021/05/30 00:04:41;;;;;;;6.83;5.90;;;;;;;;;;4993782;28;20705;-71
2021/05/30 00:07:10;;;;;;;6.67;5.97;;;;;;;;;;4990926;28;20207;-72
2021/05/30 00:09:38;;;;;;;6.03;5.53;;;;;;;;;;4976656;28;20710;-70
2021/05/30 00:12:04;;;;;;;6.97;6.10;;;;;;;;;;4965064;28;20188;-70
2021/05/30 00:14:30;;;;;;;6.40;5.70;;;;;;;;;;4992551;28;20215;-72
2021/05/30 00:16:56;;;;;;;7.67;6.00;;;;;;;;;;4992412;28;20619;-70
2021/05/30 00:19:22;;;;;;;6.80;6.20;;;;;;;;;;4994485;28;20780;-69
2021/05/30 00:21:48;;;;;;;6.80;6.10;;;;;;;;;;4991168;28;20201;-70
2021/05/30 00:24:15;;;;;;;7.40;6.23;;;;;;;;;;4993459;28;20680;-69
2021/05/30 00:26:41;;;;;;;6.37;5.77;;;;;;;;;;4971453;28;20179;-72
2021/05/30 00:29:07;;;;;;;7.43;6.10;;;;;;;;;;5007419;28;20213;-70
2021/05/30 00:31:33;;;;;;;6.67;6.07;;;;;;;;;;5010974;28;20176;-72
2021/05/30 00:33:59;;;;;;;5.90;5.20;;;;;;;;;;4975851;28;20207;-70
2021/05/30 00:36:25;;;;;;;6.23;5.63;;;;;;;;;;4991908;28;20181;-69
2021/05/30 00:38:51;;;;;;;6.60;5.87;;;;;;;;;;4994703;28;20266;-70
2021/05/30 00:41:17;;;;;;;7.40;5.70;;;;;;;;;;4991126;28;20188;-68
2021/05/30 00:43:47;;;;;;;8.80;5.83;;;;;;;;;;4989367;28;20204;-69
2021/05/30 00:46:13;;;;;;;7.37;6.47;;;;;;;;;;4978549;28;20258;-68
2021/05/30 00:48:39;;;;;;;5.93;5.33;;;;;;;;;;4994042;28;20575;-69
2021/05/30 00:51:05;;;;;;;5.93;5.40;;;;;;;;;;4991797;28;20681;-68
2021/05/30 00:53:32;;;;;;;6.45;5.38;;;;;;;;;;4976872;28;20338;-70
2021/05/30 00:55:58;;;;;;;7.57;6.80;;;;;;;;;;4991105;28;20219;-70
2021/05/30 00:58:24;;;;;;;6.17;5.63;;;;;;;;;;4993719;28;20191;-68
2021/05/30 01:00:51;;;;;;;6.20;5.60;;;;;;;;;;4990585;28;20182;-69
2021/05/30 01:03:17;;;;;;;6.10;5.53;;;;;;;;;;4993618;28;20213;-69
2021/05/30 01:05:43;;;;;;;6.30;5.63;;;;;;;;;;4991412;28;20179;-68
2021/05/30 01:08:10;;;;;;;7.33;6.17;;;;;;;;;;4993892;28;20774;-69
2021/05/30 01:10:37;;;;;;;6.33;5.73;;;;;;;;;;4974962;28;20226;-70
2021/05/30 01:13:07;;;;;;;6.30;5.70;;;;;;;;;;4992704;28;20190;-69
2021/05/30 01:15:33;;;;;;;6.47;5.70;;;;;;;;;;4989734;28;20183;-68
2021/05/30 01:17:59;;;;;;;6.70;6.00;;;;;;;;;;4991237;28;20192;-71
2021/05/30 01:20:26;;;;;;;6.03;5.53;;;;;;;;;;4990175;28;20182;-68
2021/05/30 01:22:52;;;;;;;6.30;5.70;;;;;;;;;;4981457;28;20214;-69
2021/05/30 01:25:19;;;;;;;7.80;6.57;;;;;;;;;;4972257;28;20268;-68
2021/05/30 01:27:46;;;;;;;6.10;5.50;;;;;;;;;;4993621;28;20190;-68
2021/05/30 01:30:12;;;;;;;6.10;5.50;;;;;;;;;;4991177;28;20185;-70
2021/05/30 01:32:39;;;;;;;6.57;5.97;;;;;;;;;;4983504;28;20221;-68
2021/05/30 01:35:06;;;;;;;7.63;6.60;;;;;;;;;;4971785;28;20697;-68
2021/05/30 01:37:32;;;;;;;6.63;5.90;;;;;;;;;;4992906;28;20179;-71
2021/05/30 01:39:58;;;;;;;6.40;5.80;;;;;;;;;;4973358;28;20191;-69
2021/05/30 01:42:25;;;;;;;6.40;5.80;;;;;;;;;;4993144;28;20248;-68
2021/05/30 01:44:51;;;;;;;7.73;5.93;;;;;;;;;;4973658;28;20630;-68
2021/05/30 01:47:17;;;;;;;5.97;5.47;;;;;;;;;;4991529;28;20237;-69
2021/05/30 01:49:43;;;;;;;6.87;6.20;;;;;;;;;;4991445;28;20195;-70
2021/05/30 01:52:10;;;;;;;6.27;5.67;;;;;;;;;;4988994;28;20179;-69
2021/05/30 01:54:40;;;;;;;6.83;6.13;;;;;;;;;;4991784;28;20305;-68
2021/05/30 01:57:08;;;;;;;6.27;5.57;;;;;;;;;;4990879;28;20473;-69
2021/05/30 01:59:34;;;;;;;6.93;6.30;;;;;;;;;;4972243;28;20648;-72
2021/05/30 02:02:01;;;;;;;6.33;5.40;;;;;;;;;;4989300;28;20193;-70
2021/05/30 02:04:35;;;;;;;7.00;5.90;;;;;;;;;;4991249;28;20539;-69
2021/05/30 02:07:02;;;;;;;6.53;5.93;;;;;;;;;;4976514;28;20167;-69
2021/05/30 02:09:30;;;;;;;6.63;5.90;;;;;;;;;;4988849;28;20976;-71
2021/05/30 02:11:56;;;;;;;6.17;5.57;;;;;;;;;;4988828;28;20190;-68
2021/05/30 02:14:22;;;;;;;6.97;6.23;;;;;;;;;;4974346;28;20183;-68
2021/05/30 02:16:48;;;;;;;6.30;5.70;;;;;;;;;;4990195;28;20187;-71
2021/05/30 02:19:14;;;;;;;6.57;5.90;;;;;;;;;;4975163;28;20205;-69
2021/05/30 02:21:40;;;;;;;6.30;5.70;;;;;;;;;;4989991;28;20199;-70
2021/05/30 02:24:06;;;;;;;5.90;5.23;;;;;;;;;;4975817;28;20192;-70
2021/05/30 02:26:32;;;;;;;6.27;5.43;;;;;;;;;;4959624;28;20649;-70
2021/05/30 02:28:58;;;;;;;6.53;5.93;;;;;;;;;;4996485;28;20175;-69
2021/05/30 02:31:24;;;;;;;5.57;5.07;;;;;;;;;;4994365;28;20579;-70
2021/05/30 02:33:50;;;;;;;6.57;5.47;;;;;;;;;;4996758;28;20178;-69
2021/05/30 02:36:16;;;;;;;6.97;6.13;;;;;;;;;;4977102;28;20345;-69
2021/05/30 02:38:42;;;;;;;6.27;5.67;;;;;;;;;;4979116;28;20183;-69
2021/05/30 02:41:08;;;;;;;6.10;5.50;;;;;;;;;;4991698;28;20194;-70
2021/05/30 02:43:34;;;;;;;7.23;6.53;;;;;;;;;;4996882;28;20658;-69
2021/05/30 02:46:02;;;;;;;5.93;5.43;;;;;;;;;;4994617;28;20171;-69
2021/05/30 02:48:28;;;;;;;6.30;5.70;;;;;;;;;;4992819;28;20697;-68
2021/05/30 02:50:58;;;;;;;6.03;5.50;;;;;;;;;;4979877;28;20183;-69
2021/05/30 02:53:25;;;;;;;6.87;6.10;;;;;;;;;;4996111;28;20183;-69
2021/05/30 02:55:51;;;;;;;6.70;6.10;;;;;;;;;;4993657;28;20254;-68
2021/05/30 02:58:17;;;;;;;6.40;5.80;;;;;;;;;;4976528;28;20669;-67
2021/05/30 03:00:43;;;;;;;5.60;5.10;;;;;;;;;;4978357;28;20210;-68
2021/05/30 03:03:09;;;;;;;6.67;6.00;;;;;;;;;;4996338;28;20222;-70
2021/05/30 03:05:35;;;;;;;7.07;6.37;;;;;;;;;;4993635;28;20179;-68
2021/05/30 03:08:01;;;;;;;6.20;5.60;;;;;;;;;;4980561;28;20175;-68
2021/05/30 03:10:27;;;;;;;6.50;5.77;;;;;;;;;;4993033;28;20190;-68
2021/05/30 03:12:53;;;;;;;6.43;5.83;;;;;;;;;;4990783;28;20190;-67
2021/05/30 03:15:19;;;;;;;5.80;5.30;;;;;;;;;;4972580;28;20191;-67
2021/05/30 03:17:45;;;;;;;6.70;5.50;;;;;;;;;;4978539;28;20193;-67
2021/05/30 03:20:11;;;;;;;6.07;5.47;;;;;;;;;;4976393;28;20171;-67
2021/05/30 03:22:37;;;;;;;6.13;5.53;;;;;;;;;;4992992;28;20409;-67
2021/05/30 03:25:04;;;;;;;6.67;5.93;;;;;;;;;;4992046;28;20539;-67
2021/05/30 03:27:30;;;;;;;8.30;5.20;;;;;;;;;;4993346;28;20207;-69
2021/05/30 03:29:57;;;;;;;6.60;5.87;;;;;;;;;;4993459;28;20495;-68
2021/05/30 03:32:23;;;;;;;6.00;5.40;;;;;;;;;;4982948;28;20295;-68
2021/05/30 03:34:49;;;;;;;9.03;5.80;;;;;;;;;;4991870;28;20237;-67
2021/05/30 03:37:15;;;;;;;6.97;6.27;;;;;;;;;;4993436;28;20225;-68
2021/05/30 03:39:43;;;;;;;5.90;5.30;;;;;;;;;;4993891;28;20183;-68
2021/05/30 03:42:14;;;;;;;6.97;5.70;;;;;;;;;;4993042;28;20234;-69
2021/05/30 03:44:40;;;;;;;7.87;6.07;;;;;;;;;;4976410;28;20682;-68
2021/05/30 03:47:11;;;;;;;7.43;5.90;;;;;;;;;;4974275;28;20548;-69
2021/05/30 03:49:37;;;;;;;6.10;5.50;;;;;;;;;;4990460;28;20179;-68
2021/05/30 03:52:03;;;;;;;6.50;5.83;;;;;;;;;;4991953;28;20245;-68
2021/05/30 03:54:29;;;;;;;6.20;5.70;;;;;;;;;;4972078;28;20230;-70
2021/05/30 03:56:55;;;;;;;7.37;5.63;;;;;;;;;;4970633;28;20196;-71
2021/05/30 03:59:21;;;;;;;6.20;5.60;;;;;;;;;;4973595;28;20191;-68
2021/05/30 04:01:47;;;;;;;6.60;5.90;;;;;;;;;;4970989;28;20196;-68
2021/05/30 04:04:13;;;;;;;7.40;5.63;;;;;;;;;;4969109;28;20176;-68
2021/05/30 04:06:39;;;;;;;6.40;5.80;;;;;;;;;;4970915;28;20188;-67
2021/05/30 04:09:05;;;;;;;6.20;5.50;;;;;;;;;;4973320;28;20534;-68
2021/05/30 04:11:31;;;;;;;5.97;5.47;;;;;;;;;;4972380;28;20187;-67
2021/05/30 04:13:57;;;;;;;7.30;6.00;;;;;;;;;;4972283;28;20189;-67
2021/05/30 04:16:23;;;;;;;6.70;6.03;;;;;;;;;;4971817;28;20426;-68
2021/05/30 04:18:50;;;;;;;5.77;5.17;;;;;;;;;;4972916;28;20649;-67
2021/05/30 04:21:16;;;;;;;6.83;6.13;;;;;;;;;;4972630;28;20179;-67
2021/05/30 04:23:42;;;;;;;5.60;5.10;;;;;;;;;;4974892;28;20290;-68
2021/05/30 04:26:08;;;;;;;6.47;5.87;;;;;;;;;;4972034;28;20199;-68
2021/05/30 04:28:34;;;;;;;6.40;5.80;;;;;;;;;;4975186;28;20187;-68
2021/05/30 04:31:00;;;;;;;7.43;5.57;;;;;;;;;;4972720;28;20182;-67
2021/05/30 04:33:26;;;;;;;6.57;5.67;;;;;;;;;;4970306;28;20180;-67
2021/05/30 04:35:52;;;;;;;8.33;6.40;;;;;;;;;;4972689;28;20212;-68
2021/05/30 04:38:18;;;;;;;5.63;5.13;;;;;;;;;;4974520;28;20180;-67
2021/05/30 04:40:45;;;;;;;6.20;5.43;;;;;;;;;;4970433;28;20226;-67
2021/05/30 04:43:11;;;;;;;5.97;5.37;;;;;;;;;;4974891;28;20203;-67
2021/05/30 04:45:37;;;;;;;6.60;5.87;;;;;;;;;;4970989;28;20192;-68
2021/05/30 04:48:04;;;;;;;6.03;5.43;;;;;;;;;;4972443;28;20190;-68
2021/05/30 04:50:30;;;;;;;7.40;6.03;;;;;;;;;;4972002;28;20260;-67
2021/05/30 04:52:56;;;;;;;7.40;6.10;;;;;;;;;;4969425;28;20193;-69
2021/05/30 04:55:22;;;;;;;6.50;5.77;;;;;;;;;;4976097;28;20281;-67
2021/05/30 04:57:48;;;;;;;6.53;5.90;;;;;;;;;;4974678;28;20649;-67
2021/05/30 05:00:15;;;;;;;6.13;5.53;;;;;;;;;;4971356;28;20194;-68
2021/05/30 05:02:41;;;;;;;5.57;5.00;;;;;;;;;;4965849;28;20206;-68
2021/05/30 05:05:10;;;;;;;5.80;5.30;;;;;;;;;;4975591;28;20191;-69
2021/05/30 05:07:36;;;;;;;7.07;6.37;;;;;;;;;;4973740;28;20534;-69
2021/05/30 05:10:03;;;;;;;6.40;5.37;;;;;;;;;;4974795;28;20286;-68
2021/05/30 05:12:29;;;;;;;8.47;6.17;;;;;;;;;;4994307;28;20193;-69
2021/05/30 05:14:55;;;;;;;5.77;5.20;;;;;;;;;;4972116;28;20187;-67
2021/05/30 05:17:21;;;;;;;6.37;5.77;;;;;;;;;;4992581;28;20566;-68
2021/05/30 05:19:47;;;;;;;6.73;6.03;;;;;;;;;;4992001;28;20637;-67
2021/05/30 05:22:13;;;;;;;6.10;5.53;;;;;;;;;;4990971;28;20234;-68
2021/05/30 05:24:39;;;;;;;6.63;5.87;;;;;;;;;;4992492;28;20262;-70
2021/05/30 05:27:05;;;;;;;7.33;6.53;;;;;;;;;;4990789;28;20186;-68
2021/05/30 05:29:31;;;;;;;6.20;5.67;;;;;;;;;;4990779;28;20213;-68
2021/05/30 05:31:57;;;;;;;7.10;6.40;;;;;;;;;;4990660;28;20609;-67
2021/05/30 05:34:23;;;;;;;6.93;6.20;;;;;;;;;;4993580;28;20183;-68
2021/05/30 05:36:49;;;;;;;7.37;6.30;;;;;;;;;;4990646;28;20213;-67
2021/05/30 05:39:15;;;;;;;7.27;6.10;;;;;;;;;;5003575;28;20206;-68
2021/05/30 05:41:42;;;;;;;6.93;6.20;;;;;;;;;;4979504;28;20818;-69
2021/05/30 05:44:08;;;;;;;6.70;6.00;;;;;;;;;;4975717;28;20183;-69
2021/05/30 05:46:34;;;;;;;7.77;6.37;;;;;;;;;;4968925;28;20182;-68
2021/05/30 05:49:00;;;;;;;6.43;5.83;;;;;;;;;;4986622;28;20184;-68
2021/05/30 05:51:26;;;;;;;7.13;6.23;;;;;;;;;;4974447;28;20179;-67
2021/05/30 05:53:52;;;;;;;7.67;6.87;;;;;;;;;;4992397;28;20190;-68
2021/05/30 05:56:18;;;;;;;7.77;6.97;;;;;;;;;;4973990;28;20633;-68
2021/05/30 05:58:44;;;;;;;7.10;6.40;;;;;;;;;;4994457;28;20697;-68
2021/05/30 06:01:10;;;;;;;7.03;6.33;;;;;;;;;;4994472;28;20262;-68
2021/05/30 06:03:37;;;;;;;7.67;6.73;;;;;;;;;;4987760;28;20230;-67
2021/05/30 06:06:04;;;;;;;7.37;6.60;;;;;;;;;;4986233;28;20278;-68
2021/05/30 06:08:31;;;;;;;6.87;6.17;;;;;;;;;;5003982;28;20221;-67
2021/05/30 06:10:57;;;;;;;9.13;7.03;;;;;;;;;;4993535;28;20756;-68
2021/05/30 06:13:23;;;;;;;7.43;6.70;;;;;;;;;;4996765;28;20190;-68
2021/05/30 06:15:49;;;;;;;8.43;6.97;;;;;;;;;;4980693;28;20187;-68
2021/05/30 06:18:17;;;;;;;7.90;7.10;;;;;;;;;;5003027;28;20178;-68
2021/05/30 06:20:44;;;;;;;7.67;6.73;;;;;;;;;;5013745;28;20177;-68
2021/05/30 06:23:10;;;;;;;8.37;7.33;;;;;;;;;;4993681;28;20211;-70
2021/05/30 06:25:36;;;;;;;8.17;7.33;;;;;;;;;;4992539;28;20529;-68
2021/05/30 06:28:02;;;;;;;8.17;6.83;;;;;;;;;;4988422;28;20179;-70
2021/05/30 06:30:33;;;;;;;8.27;7.47;;;;;;;;;;4983614;28;20518;-67
2021/05/30 06:32:59;;;;;;;7.97;7.03;;;;;;;;;;4970066;28;20180;-68
2021/05/30 06:35:28;;;;;;;8.07;7.27;;;;;;;;;;4992057;28;20187;-70
2021/05/30 06:37:54;;;;;;;9.47;7.57;;;;;;;;;;4976149;28;20179;-69
2021/05/30 06:40:21;;;;;;;8.20;7.37;;;;;;;;;;4959743;28;20550;-68
2021/05/30 06:42:49;;;;;;;8.40;7.20;;;;;;;;;;4973495;28;20229;-67
2021/05/30 06:45:15;;;;;;;7.63;6.63;;;;;;;;;;4990975;28;20175;-70
2021/05/30 06:47:41;;;;;;;8.87;8.03;;;;;;;;;;4990732;28;20206;-67
2021/05/30 06:50:07;;;;;;;8.80;7.70;;;;;;;;;;4992760;28;20180;-66
2021/05/30 06:52:33;;;;;;;7.87;7.13;;;;;;;;;;4980802;28;20645;-67
2021/05/30 06:55:00;;;;;;;9.03;8.17;;;;;;;;;;4992348;28;20230;-66
2021/05/30 06:57:26;;;;;;;10.27;8.20;;;;;;;;;;4992646;28;20923;-68
2021/05/30 06:59:52;;;;;;;9.17;8.17;;;;;;;;;;4978611;28;20210;-67
2021/05/30 07:02:19;;;;;;;8.97;8.03;;;;;;;;;;4978247;28;20254;-68
2021/05/30 07:04:45;;;;;;;8.37;7.57;;;;;;;;;;4994318;28;20282;-68
2021/05/30 07:07:11;;;;;;;8.67;7.87;;;;;;;;;;4984558;28;20648;-67
2021/05/30 07:09:37;;;;;;;8.57;7.67;;;;;;;;;;4976840;28;20221;-66
2021/05/30 07:12:05;;;;;;;8.87;7.97;;;;;;;;;;4984993;28;20195;-68
2021/05/30 07:14:31;;;;;;;8.87;7.97;;;;;;;;;;4977302;28;20215;-67
2021/05/30 07:16:57;;;;;;;10.87;8.17;;;;;;;;;;4976116;28;20262;-68
2021/05/30 07:19:23;;;;;;;9.30;8.40;;;;;;;;;;4974376;28;20188;-68
2021/05/30 07:21:50;;;;;;;8.83;7.67;;;;;;;;;;4988499;28;20235;-67
2021/05/30 07:24:16;;;;;;;8.43;7.57;;;;;;;;;;4995730;28;20550;-67
2021/05/30 07:26:42;;;;;;;8.40;7.50;;;;;;;;;;4981016;28;20179;-68
2021/05/30 07:29:08;;;;;;;7.27;6.40;;;;;;;;;;4999419;28;20187;-67
2021/05/30 07:31:35;;;;;;;7.50;6.77;;;;;;;;;;4977788;28;20526;-68
2021/05/30 07:34:01;;;;;;;8.73;7.83;;;;;;;;;;4993502;28;20183;-70
2021/05/30 07:36:32;;;;;;;8.23;7.13;;;;;;;;;;4990487;28;20266;-68
2021/05/30 07:38:58;;;;;;;8.17;7.37;;;;;;;;;;4974642;28;20183;-68
2021/05/30 07:41:24;;;;;;;7.70;7.00;;;;;;;;;;4987927;28;20183;-69
2021/05/30 07:43:50;;;;;;;7.47;6.63;;;;;;;;;;4991362;28;20211;-68
2021/05/30 07:46:16;;;;;;;7.87;7.07;;;;;;;;;;4973104;28;20182;-64
2021/05/30 07:48:42;;;;;;;6.60;6.00;;;;;;;;;;4993832;28;20185;-63
2021/05/30 07:51:08;;;;;;;6.87;6.17;;;;;;;;;;4992850;28;20602;-65
2021/05/30 07:53:34;;;;;;;6.80;6.10;;;;;;;;;;4975153;28;20661;-66
2021/05/30 07:56:01;;;;;;;7.87;6.60;;;;;;;;;;4973732;28;20310;-63
2021/05/30 07:58:27;;;;;;;6.93;6.13;;;;;;;;;;4994460;28;20238;-63
2021/05/30 08:00:53;;;;;;;7.10;6.40;;;;;;;;;;4975135;28;20907;-63
2021/05/30 08:03:21;;;;;;;6.30;5.70;;;;;;;;;;4994687;28;20202;-66
2021/05/30 08:05:47;;;;;;;6.90;5.33;;;;;;;;;;4973757;28;20183;-65
2021/05/30 08:08:13;;;;;;;5.63;5.13;;;;;;;;;;4992280;28;20242;-64
2021/05/30 08:10:40;;;;;;;7.43;5.40;;;;;;;;;;4973780;28;20184;-63
2021/05/30 08:13:06;;;;;;;6.23;5.63;;;;;;;;;;4992936;28;20173;-64
2021/05/30 08:15:32;;;;;;;5.60;4.80;;;;;;;;;;4992201;28;20182;-64
2021/05/30 08:17:58;;;;;;;5.23;4.73;;;;;;;;;;4990971;28;20678;-64
2021/05/30 08:20:27;;;;;;;6.20;4.50;;;;;;;;;;4993362;28;20210;-63
2021/05/30 08:22:53;;;;;;;5.27;4.77;;;;;;;;;;4990456;28;20207;-66
2021/05/30 08:25:19;;;;;;;5.47;4.97;;;;;;;;;;4988380;28;20185;-66
2021/05/30 08:27:47;;;;;;;4.87;4.37;;;;;;;;;;4997829;28;20235;-64
2021/05/30 08:30:14;;;;;;;5.73;4.80;;;;;;;;;;4974284;28;20249;-63
2021/05/30 08:32:40;;;;;;;4.77;3.80;;;;;;;;;;4975923;28;20194;-65
2021/05/30 08:35:07;;;;;;;4.60;4.13;;;;;;;;;;4991386;28;20186;-64
2021/05/30 08:37:33;;;;;;;4.37;3.80;;;;;;;;;;4993692;28;20224;-64
2021/05/30 08:39:59;;;;;;;5.03;4.37;;;;;;;;;;4955757;28;20247;-66
2021/05/30 08:42:25;;;;;;;4.50;3.80;;;;;;;;;;4990366;28;20295;-64
2021/05/30 08:44:52;;;;;;;5.03;4.53;;;;;;;;;;4988606;28;20258;-64
2021/05/30 08:47:22;;;;;;;4.43;3.77;;;;;;;;;;4991355;28;20182;-65
2021/05/30 08:49:49;;;;;;;6.90;4.57;;;;;;;;;;4973331;28;20183;-63
2021/05/30 08:52:15;;;;;;;6.37;4.63;;;;;;;;;;4992189;28;20191;-66
2021/05/30 08:54:41;;;;;;;4.87;4.17;;;;;;;;;;4990825;28;20234;-65
2021/05/30 08:57:07;;;;;;;4.63;4.17;;;;;;;;;;4987791;28;20421;-65
2021/05/30 08:59:35;;;;;;;3.93;3.63;;;;;;;;;;5003749;28;20583;-65
2021/05/30 09:02:13;;;;;;;4.60;4.07;;;;;;;;;;4973454;28;20217;-65
2021/05/30 09:04:40;;;;;;;3.90;3.53;;;;;;;;;;4987980;28;20175;-67
2021/05/30 09:07:06;;;;;;;3.73;3.43;;;;;;;;;;4966871;28;20189;-65
2021/05/30 09:09:43;;;;;;;4.00;3.63;;;;;;;;;;4963980;28;20263;-66
2021/05/30 09:12:23;;;;;;;4.27;3.97;;;;;;;;;;4970024;28;20230;-67
2021/05/30 09:14:51;;;;;;;3.50;3.20;;;;;;;;;;4980193;28;20186;-65
2021/05/30 09:17:17;;;;;;;4.00;3.60;;;;;;;;;;4990742;28;20183;-65
2021/05/30 09:19:54;;;;;;;3.80;3.50;;;;;;;;;;4989100;28;20234;-63
2021/05/30 09:22:27;;;;;;;4.07;3.67;;;;;;;;;;4991430;28;20187;-65
2021/05/30 09:24:52;;;;;;;3.93;3.63;;;;;;;;;;4989113;28;20266;-64
2021/05/30 09:27:19;;;;;;;4.43;3.67;;;;;;;;;;4991014;28;20665;-66
2021/05/30 09:29:45;;;;;;;4.73;4.23;;;;;;;;;;4985079;28;20732;-65
2021/05/30 09:32:11;;;;;;;5.00;3.63;;;;;;;;;;4971559;28;20246;-65
2021/05/30 09:34:40;;;;;;;4.37;3.30;;;;;;;;;;4989627;28;20194;-65
2021/05/30 09:37:08;;;;;;;3.50;3.20;;;;;;;;;;4990536;28;20179;-64
2021/05/30 09:39:34;;;;;;;3.50;3.20;;;;;;;;;;4989713;28;20179;-66
2021/05/30 09:42:19;;;;;;;6.57;3.43;;;;;;;;;;4990285;28;20210;-65
2021/05/30 09:44:59;;;;;;;3.20;2.83;;;;;;;;;;4991112;28;20225;-65
2021/05/30 09:47:43;;;;;;;3.10;2.90;;;;;;;;;;4984465;28;20183;-63
2021/05/30 09:50:10;;;;;;;8.20;3.07;;;;;;;;;;4972885;28;20765;-67
2021/05/30 09:52:41;;;;;;;3.37;3.07;;;;;;;;;;4992141;28;20244;-66
2021/05/30 09:55:21;;;;;;;3.17;2.87;;;;;;;;;;4982013;28;20314;-66
2021/05/30 09:58:08;;;;;;;4.10;3.53;;;;;;;;;;4974819;28;20554;-64
2021/05/30 10:00:35;;;;;;;3.77;3.47;;;;;;;;;;4991175;28;20193;-65
2021/05/30 10:03:01;;;;;;;3.07;2.60;;;;;;;;;;4975749;28;20203;-64
2021/05/30 10:05:27;;;;;;;3.90;2.70;;;;;;;;;;4989165;28;20183;-66
2021/05/30 10:07:54;;;;;;;3.13;2.37;;;;;;;;;;4975822;28;20604;-65
2021/05/30 10:10:21;;;;;;;2.87;2.67;;;;;;;;;;4989375;28;20175;-65
2021/05/30 10:12:47;;;;;;;3.00;2.70;;;;;;;;;;4992355;28;20499;-65
2021/05/30 10:15:13;;;;;;;2.83;2.63;;;;;;;;;;4989777;28;20191;-64
2021/05/30 10:17:40;;;;;;;2.70;2.50;;;;;;;;;;4968703;28;20245;-64
2021/05/30 10:20:08;;;;;;;3.10;2.80;;;;;;;;;;4985720;28;20650;-64
2021/05/30 10:22:35;;;;;;;3.10;2.77;;;;;;;;;;4984565;28;20682;-64
2021/05/30 10:25:01;;;;;;;2.83;2.63;;;;;;;;;;4988549;28;20188;-65
2021/05/30 10:27:27;;;;;;;2.57;2.30;;;;;;;;;;4970371;28;20215;-66
2021/05/30 10:30:15;;;;;;;2.77;2.57;;;;;;;;;;4989586;28;20637;-65
2021/05/30 10:32:42;;;;;;;2.67;2.47;;;;;;;;;;4973541;28;20199;-63
2021/05/30 10:35:10;;;;;;;8.43;2.90;;;;;;;;;;4987689;28;20246;-63
2021/05/30 10:37:42;;;;;;;16.10;4.30;;;;;;;;;;4980862;28;20194;-63
2021/05/30 10:40:28;;;;;;;5.70;2.77;;;;;;;;;;4972857;28;20186;-62
2021/05/30 10:43:09;;;;;;;7.43;2.73;;;;;;;;;;4993324;28;20229;-63
2021/05/30 10:45:36;;;;;;;12.53;3.50;;;;;;;;;;4980608;28;20214;-63
2021/05/30 10:48:05;;;;;;;4.43;2.30;;;;;;;;;;4995892;28;20297;-62
2021/05/30 10:50:36;;;;;;;31.87;5.57;;;;;;;;;;4994041;28;20191;-64
2021/05/30 10:53:02;;;;;;;10.10;3.10;;;;;;;;;;4992733;28;20613;-65
2021/05/30 10:55:29;;;;;;;8.57;3.20;;;;;;;;;;4986965;28;20219;-65
2021/05/30 10:57:56;;;;;;;7.70;3.10;;;;;;;;;;4983405;28;20577;-65
2021/05/30 11:00:22;;;;;;;4.63;2.70;;;;;;;;;;4994018;28;20190;-65
2021/05/30 11:03:04;;;;;;;3.93;2.67;;;;;;;;;;4995646;28;20266;-65
2021/05/30 11:05:39;;;;;;;50.83;8.63;;;;;;;;;;4988747;28;20607;-64
2021/05/30 11:08:05;;;;;;;24.83;4.93;;;;;;;;;;4995535;28;20649;-63
2021/05/30 11:10:31;;;;;;;12.77;2.93;;;;;;;;;;4976962;28;20180;-64
2021/05/30 11:12:59;;;;;;;13.57;3.23;;;;;;;;;;4994923;28;20255;-65
2021/05/30 11:15:26;;;;;;;6.67;3.23;;;;;;;;;;4976417;28;20187;-65
2021/05/30 11:17:54;;;;;;;179.05;21.55;;;;;;;;;;4999197;28;20415;-66
2021/05/30 11:20:49;;;;;;;23.43;6.47;;;;;;;;;;4996423;28;20534;-65
2021/05/30 11:23:16;;;;;;;25.80;6.50;;;;;;;;;;4985745;28;20224;-64
2021/05/30 11:25:48;;;;;;;2.80;2.60;;;;;;;;;;4991621;28;20253;-64
2021/05/30 11:28:15;;;;;;;3.40;2.47;;;;;;;;;;4978775;28;20198;-65
2021/05/30 11:30:44;;;;;;;2.70;2.50;;;;;;;;;;4976279;28;20280;-64
2021/05/30 11:33:13;;;;;;;2.40;2.20;;;;;;;;;;4996129;28;20565;-63
2021/05/30 11:35:40;;;;;;;2.57;2.37;;;;;;;;;;4993431;28;20774;-64
2021/05/30 11:38:06;;;;;;;2.50;2.30;;;;;;;;;;4976616;28;20637;-64
2021/05/30 11:40:34;;;;;;;2.80;2.60;;;;;;;;;;4973721;28;20196;-65
2021/05/30 11:43:20;;;;;;;6.33;2.77;;;;;;;;;;4974952;28;20209;-67
2021/05/30 11:45:48;;;;;;;3.30;2.90;;;;;;;;;;4973656;28;20183;-65
2021/05/30 11:48:18;;;;;;;3.47;3.13;;;;;;;;;;4991592;28;20636;-65
2021/05/30 11:50:53;;;;;;;3.57;2.53;;;;;;;;;;4989321;28;20650;-65
2021/05/30 11:53:29;;;;;;;3.73;2.30;;;;;;;;;;4992999;28;20176;-64
2021/05/30 11:55:56;;;;;;;3.93;2.50;;;;;;;;;;5011611;28;20717;-65
2021/05/30 11:58:22;;;;;;;3.80;2.40;;;;;;;;;;5012264;28;20181;-64
2021/05/30 12:00:53;;;;;;;3.23;2.27;;;;;;;;;;5008213;28;20192;-65
2021/05/30 12:03:19;;;;;;;2.40;2.20;;;;;;;;;;5000568;28;20212;-65
2021/05/30 12:05:45;;;;;;;2.50;2.30;;;;;;;;;;4981016;28;20237;-64
2021/05/30 12:08:12;;;;;;;4.13;2.77;;;;;;;;;;4999996;28;20176;-66
2021/05/30 12:10:47;;;;;;;4.10;2.67;;;;;;;;;;4991519;28;20256;-66
2021/05/30 12:13:24;;;;;;;3.20;2.67;;;;;;;;;;4988776;28;20177;-66
2021/05/30 12:15:50;;;;;;;2.60;2.40;;;;;;;;;;4992937;28;20171;-65
2021/05/30 12:18:16;;;;;;;2.63;2.43;;;;;;;;;;5002059;28;20186;-67
2021/05/30 12:20:44;;;;;;;3.73;2.80;;;;;;;;;;4978716;28;20184;-66
2021/05/30 12:23:17;;;;;;;2.90;2.60;;;;;;;;;;5000295;28;20201;-66
2021/05/30 12:25:57;;;;;;;3.43;2.60;;;;;;;;;;4972561;28;20498;-65
2021/05/30 12:28:23;;;;;;;2.20;2.10;;;;;;;;;;4985126;28;20182;-66
2021/05/30 12:30:51;;;;;;;3.87;2.70;;;;;;;;;;4990478;28;20652;-65
2021/05/30 12:33:17;;;;;;;2.57;2.37;;;;;;;;;;4998010;28;20563;-64
2021/05/30 12:35:48;;;;;;;3.20;2.37;;;;;;;;;;4983374;28;20230;-66
2021/05/30 12:38:16;;;;;;;4.10;2.60;;;;;;;;;;4997536;28;20280;-63
2021/05/30 12:40:43;;;;;;;2.30;2.20;;;;;;;;;;4991695;28;20179;-66
2021/05/30 12:43:09;;;;;;;3.03;2.73;;;;;;;;;;4978142;28;20214;-65
2021/05/30 12:45:36;;;;;;;2.93;2.33;;;;;;;;;;4974321;28;20175;-65
2021/05/30 12:48:02;;;;;;;2.63;2.43;;;;;;;;;;4993545;28;20590;-66
2021/05/30 12:50:40;;;;;;;2.30;2.10;;;;;;;;;;4991199;28;20175;-65
2021/05/30 12:53:07;;;;;;;2.40;2.20;;;;;;;;;;4992316;28;20206;-67
2021/05/30 12:55:40;;;;;;;5.03;2.70;;;;;;;;;;4989895;28;20301;-68
2021/05/30 12:58:17;;;;;;;2.50;2.30;;;;;;;;;;4973553;28;20638;-67
2021/05/30 13:00:43;;;;;;;3.50;3.10;;;;;;;;;;4990459;28;20175;-68
2021/05/30 13:03:10;;;;;;;2.37;2.17;;;;;;;;;;4977678;28;20210;-67
2021/05/30 13:05:38;;;;;;;3.17;2.37;;;;;;;;;;4973663;28;20530;-67
2021/05/30 13:08:17;;;;;;;2.60;2.40;;;;;;;;;;4978015;28;20279;-68
2021/05/30 13:10:50;;;;;;;3.57;2.73;;;;;;;;;;4985919;28;20179;-67
2021/05/30 13:13:29;;;;;;;3.03;2.20;;;;;;;;;;4993543;28;20210;-68
2021/05/30 13:15:55;;;;;;;2.47;2.07;;;;;;;;;;4973322;28;20221;-67
2021/05/30 13:18:21;;;;;;;2.80;2.60;;;;;;;;;;4980557;28;20198;-66
2021/05/30 13:20:51;;;;;;;3.00;2.30;;;;;;;;;;4991583;28;20171;-67
2021/05/30 13:23:20;;;;;;;2.67;2.40;;;;;;;;;;4998408;28;20213;-67
2021/05/30 13:25:48;;;;;;;2.77;2.57;;;;;;;;;;4973207;28;20266;-66
2021/05/30 13:28:18;;;;;;;3.53;2.47;;;;;;;;;;4964465;28;20547;-67
2021/05/30 13:30:45;;;;;;;6.27;2.20;;;;;;;;;;4970842;28;20215;-66
2021/05/30 13:33:12;;;;;;;3.47;2.47;;;;;;;;;;4991038;28;20179;-63
2021/05/30 13:35:38;;;;;;;5.00;2.77;;;;;;;;;;4990932;28;20184;-62
2021/05/30 13:38:04;;;;;;;38.23;5.20;;;;;;;;;;4988366;28;20579;-63
2021/05/30 13:40:41;;;;;;;2.27;2.07;;;;;;;;;;4992149;28;20188;-62
2021/05/30 13:43:07;;;;;;;2.40;2.20;;;;;;;;;;4985181;28;20198;-63
2021/05/30 13:45:33;;;;;;;3.40;2.00;;;;;;;;;;4980864;28;20247;-62
2021/05/30 13:47:59;;;;;;;3.53;2.47;;;;;;;;;;4974261;28;20190;-65
2021/05/30 13:50:25;;;;;;;3.00;1.90;;;;;;;;;;4976841;28;20607;-65
2021/05/30 13:52:51;;;;;;;2.27;2.07;;;;;;;;;;4994962;28;20226;-63
2021/05/30 13:55:17;;;;;;;4.40;2.60;;;;;;;;;;4984945;28;20215;-63
2021/05/30 13:57:44;;;;;;;2.93;2.23;;;;;;;;;;4990590;28;20676;-63
2021/05/30 14:00:10;;;;;;;3.60;2.50;;;;;;;;;;4989075;28;20175;-63
2021/05/30 14:02:36;;;;;;;2.40;2.20;;;;;;;;;;4992249;28;20203;-63
2021/05/30 14:05:02;;;;;;;3.23;2.67;;;;;;;;;;4988296;28;20237;-64
2021/05/30 14:07:28;;;;;;;2.73;2.27;;;;;;;;;;4991208;28;20187;-63
2021/05/30 14:09:54;;;;;;;2.20;2.00;;;;;;;;;;4988891;28;20180;-62
2021/05/30 14:12:20;;;;;;;2.50;2.30;;;;;;;;;;4992192;28;20250;-62
2021/05/30 14:14:46;;;;;;;2.90;2.23;;;;;;;;;;4995792;28;20202;-64
2021/05/30 14:17:12;;;;;;;3.00;2.70;;;;;;;;;;4991203;28;20612;-63
2021/05/30 14:19:38;;;;;;;3.00;2.70;;;;;;;;;;4991226;28;20554;-63
2021/05/30 14:22:05;;;;;;;3.00;2.70;;;;;;;;;;4976366;28;20219;-64
2021/05/30 14:24:31;;;;;;;2.63;2.43;;;;;;;;;;4976174;28;20188;-64
2021/05/30 14:26:58;;;;;;;3.00;2.80;;;;;;;;;;4994918;28;20175;-63
2021/05/30 14:29:24;;;;;;;3.03;2.83;;;;;;;;;;4998681;28;20187;-63
2021/05/30 14:31:50;;;;;;;3.07;2.87;;;;;;;;;;4994068;28;20183;-63
2021/05/30 14:34:16;;;;;;;3.40;3.10;;;;;;;;;;4994069;28;20987;-65
2021/05/30 14:36:42;;;;;;;3.13;2.87;;;;;;;;;;4992912;28;20187;-67
2021/05/30 14:39:08;;;;;;;3.63;3.03;;;;;;;;;;4977444;28;20210;-67
2021/05/30 14:41:35;;;;;;;3.93;3.27;;;;;;;;;;4992675;28;20623;-68
2021/05/30 14:44:01;;;;;;;4.30;3.13;;;;;;;;;;4977205;28;20210;-67
2021/05/30 14:46:29;;;;;;;3.00;2.70;;;;;;;;;;4976854;28;20190;-68